Time;durP1;ratioP1;P1;durP2;ratioP2;P2;SDS_P1;SDS_P2;PMS_P1;PMS_P2;Temp;Humidity;BMP_temperature;BMP_pressure;BME280_temperature;BME280_humidity;BME280_pressure;Samples;Min_cycle;Max_cycle;Signal;HPM_P1;HPM_P2
2022/04/04 00:02:28;;;;;;;0.60;0.40;;;15.90;26.60;18.70;94016.00;;;;10476155;28;46586;-63
2022/04/04 00:07:29;;;;;;;0.90;0.50;;;15.90;26.70;18.70;94019.00;;;;10458534;28;47263;-63
2022/04/04 00:12:30;;;;;;;0.90;0.40;;;15.90;26.60;18.70;94012.00;;;;10475984;28;45420;-62
2022/04/04 00:17:31;;;;;;;0.80;0.50;;;15.90;26.60;18.70;94009.00;;;;10476042;28;45217;-62
2022/04/04 00:22:31;;;;;;;0.75;0.50;;;15.90;26.50;18.70;94016.00;;;;10477143;28;45137;-63
2022/04/04 00:27:32;;;;;;;0.90;0.60;;;15.90;26.50;18.70;93996.00;;;;10476042;28;45390;-62
2022/04/04 00:32:33;;;;;;;0.82;0.45;;;15.90;26.60;18.70;94001.00;;;;10483077;28;45496;-63
2022/04/04 00:37:42;;;;;;;0.68;0.40;;;15.90;26.50;18.70;93998.00;;;;10482680;28;47151;-63
2022/04/04 00:42:42;;;;;;;1.15;0.63;;;15.90;26.50;18.70;93989.00;;;;10467282;28;48328;-62
2022/04/04 00:47:43;;;;;;;0.70;0.50;;;15.90;26.60;18.70;93978.00;;;;10483873;28;45629;-63
2022/04/04 00:52:44;;;;;;;0.60;0.50;;;15.90;26.50;18.70;93986.00;;;;10465344;28;47142;-63
2022/04/04 00:57:45;;;;;;;0.40;0.40;;;15.90;26.40;18.70;93985.00;;;;10481756;28;45260;-63
2022/04/04 01:02:46;;;;;;;0.35;0.35;;;15.90;26.40;18.70;93983.00;;;;10459805;28;47041;-62
2022/04/04 01:07:47;;;;;;;0.50;0.40;;;15.90;26.40;18.70;93963.00;;;;10480313;28;46321;-64
2022/04/04 01:12:53;;;;;;;0.93;0.50;;;15.90;26.40;18.70;93961.00;;;;10464588;28;47460;-63
2022/04/04 01:17:53;;;;;;;0.67;0.50;;;15.90;26.50;18.70;93976.00;;;;10481667;28;45212;-63
2022/04/04 01:22:54;;;;;;;1.20;0.50;;;15.90;26.50;18.70;93975.00;;;;10464381;28;47604;-63
2022/04/04 01:27:56;;;;;;;1.35;0.55;;;15.90;26.40;18.70;93966.00;;;;10481693;28;46514;-63
2022/04/04 01:32:57;;;;;;;0.40;0.35;;;16.00;26.50;18.70;93964.00;;;;10482194;28;45271;-64
2022/04/04 01:37:57;;;;;;;0.80;0.40;;;15.90;26.50;18.70;93974.00;;;;10480821;28;45295;-63
2022/04/04 01:42:58;;;;;;;0.63;0.40;;;15.90;26.40;18.70;93956.00;;;;10463607;28;47984;-63
2022/04/04 01:47:59;;;;;;;0.70;0.38;;;16.00;26.50;18.70;93967.00;;;;10481436;28;45312;-63
2022/04/04 01:53:25;;;;;;;0.50;0.50;;;15.90;26.40;18.70;93968.00;;;;10482026;28;45182;-63
2022/04/04 01:58:22;;;;;;;0.75;0.50;;;15.90;27.00;18.70;93961.00;;;;10479815;28;45524;-62
2022/04/04 02:03:25;;;;;;;0.73;0.50;;;15.90;26.40;18.70;93954.00;;;;10480058;28;46564;-63
2022/04/04 02:08:26;;;;;;;1.30;0.40;;;16.00;26.50;18.70;93961.00;;;;10479657;28;46469;-62
2022/04/04 02:13:27;;;;;;;0.60;0.50;;;15.90;26.40;18.70;93962.00;;;;10479994;28;45978;-63
2022/04/04 02:18:29;;;;;;;0.68;0.50;;;15.90;26.50;18.70;93955.00;;;;10479288;28;47237;-62
2022/04/04 02:23:30;;;;;;;0.60;0.40;;;16.00;26.50;18.70;93960.00;;;;10479857;28;45590;-62
2022/04/04 02:28:30;;;;;;;0.52;0.47;;;15.90;26.40;18.70;93955.00;;;;10479623;28;45438;-63
2022/04/04 02:33:31;;;;;;;0.80;0.50;;;15.90;26.40;18.70;93957.00;;;;10480012;28;46533;-63
2022/04/04 02:38:32;;;;;;;0.82;0.43;;;15.90;26.40;18.70;93958.00;;;;10479622;28;45577;-62
2022/04/04 02:43:32;;;;;;;0.73;0.50;;;16.00;26.50;18.70;93947.00;;;;10479751;28;46459;-63
2022/04/04 02:48:34;;;;;;;0.80;0.50;;;16.00;26.50;18.70;93949.00;;;;10479247;28;45646;-64
2022/04/04 02:53:35;;;;;;;0.70;0.47;;;16.00;26.50;18.70;93950.00;;;;10478468;28;45448;-63
2022/04/04 02:58:36;;;;;;;0.55;0.30;;;16.00;26.40;18.70;93951.00;;;;10479508;28;45557;-63
2022/04/04 03:03:37;;;;;;;0.77;0.40;;;16.00;26.40;18.70;93940.00;;;;10461881;28;46789;-63
2022/04/04 03:08:38;;;;;;;0.65;0.47;;;16.00;26.40;18.70;93944.00;;;;10477993;28;46547;-63
2022/04/04 03:13:39;;;;;;;0.88;0.50;;;16.00;26.40;18.70;93936.00;;;;10479851;28;45463;-64
2022/04/04 03:18:40;;;;;;;0.70;0.50;;;16.00;26.40;18.70;93935.00;;;;10479347;28;45393;-63
2022/04/04 03:23:41;;;;;;;0.90;0.60;;;16.00;26.40;18.70;93926.00;;;;10478489;28;46707;-63
2022/04/04 03:28:41;;;;;;;0.50;0.45;;;16.00;26.30;18.70;93936.00;;;;10477600;28;45362;-63
2022/04/04 03:33:44;;;;;;;0.57;0.50;;;16.00;26.40;18.70;93924.00;;;;10479346;28;45328;-63
2022/04/04 03:38:44;;;;;;;0.63;0.40;;;16.00;26.30;18.70;93930.00;;;;10477335;28;47830;-63
2022/04/04 03:43:45;;;;;;;1.60;0.50;;;16.00;26.30;18.70;93923.00;;;;10479105;28;45816;-63
2022/04/04 03:48:46;;;;;;;0.90;0.50;;;16.00;26.30;18.70;93925.00;;;;10478522;28;46387;-62
2022/04/04 03:53:46;;;;;;;0.77;0.40;;;15.90;26.20;18.70;93929.00;;;;10478716;28;46102;-63
2022/04/04 03:58:47;;;;;;;0.60;0.47;;;15.90;26.20;18.70;93929.00;;;;10477590;28;46290;-63
2022/04/04 04:03:48;;;;;;;0.70;0.50;;;16.00;26.30;18.70;93914.00;;;;10478199;28;45380;-63
2022/04/04 04:08:48;;;;;;;1.10;0.40;;;16.00;26.20;18.70;93930.00;;;;10477379;28;45304;-63
2022/04/04 04:13:49;;;;;;;0.40;0.40;;;16.00;26.20;18.80;93919.00;;;;10459810;28;47207;-63
2022/04/04 04:18:50;;;;;;;1.00;0.50;;;16.00;26.20;18.80;93920.00;;;;10460056;28;47062;-63
2022/04/04 04:23:51;;;;;;;0.70;0.50;;;16.10;26.20;18.90;93933.00;;;;10478451;28;45374;-63
2022/04/04 04:28:52;;;;;;;0.60;0.50;;;16.00;26.10;18.90;93922.00;;;;10475954;28;46589;-63
2022/04/04 04:33:53;;;;;;;0.88;0.40;;;16.10;26.20;18.90;93930.00;;;;10477700;28;45423;-64
2022/04/04 04:38:53;;;;;;;1.02;0.60;;;16.10;26.10;19.00;93930.00;;;;10477157;28;45411;-63
2022/04/04 04:43:54;;;;;;;0.55;0.40;;;16.20;26.10;19.00;93915.00;;;;10476276;28;45315;-63
2022/04/04 04:48:54;;;;;;;0.70;0.50;;;16.20;26.10;19.00;93932.00;;;;10458436;28;47436;-63
2022/04/04 04:53:55;;;;;;;0.52;0.50;;;16.20;26.00;19.00;93930.00;;;;10475953;28;46546;-63
2022/04/04 04:58:56;;;;;;;1.10;0.50;;;16.20;26.00;19.00;93930.00;;;;10475114;28;45199;-63
2022/04/04 05:03:57;;;;;;;0.50;0.40;;;16.30;26.00;19.10;93926.00;;;;10475646;28;45411;-62
2022/04/04 05:09:00;;;;;;;0.40;0.40;;;16.30;26.10;19.10;93921.00;;;;10474052;28;47336;-63
2022/04/04 05:14:01;;;;;;;1.17;0.60;;;16.30;26.00;19.10;93921.00;;;;10476014;28;48224;-63
2022/04/04 05:19:03;;;;;;;0.63;0.60;;;16.30;26.00;19.10;93941.00;;;;10481929;28;46566;-63
2022/04/04 05:24:06;;;;;;;0.80;0.50;;;16.30;26.00;19.10;93939.00;;;;10483700;28;45343;-62
2022/04/04 05:29:07;;;;;;;0.60;0.60;;;16.30;26.00;19.10;93941.00;;;;10481606;28;45235;-62
2022/04/04 05:34:08;;;;;;;0.80;0.80;;;16.30;26.00;19.10;93948.00;;;;10451219;22;47084;-59
2022/04/04 05:39:09;;;;;;;0.82;0.63;;;16.30;26.10;19.10;93937.00;;;;10381493;28;46399;-62
2022/04/04 05:44:10;;;;;;;0.85;0.60;;;16.30;26.10;19.10;93958.00;;;;10381788;28;45220;-59
2022/04/04 05:49:11;;;;;;;1.35;0.82;;;16.30;26.00;19.10;93954.00;;;;10381572;28;46489;-58
2022/04/04 05:54:14;;;;;;;1.40;0.90;;;16.40;26.10;19.10;93954.00;;;;10398438;28;45349;-60
2022/04/04 05:59:14;;;;;;;1.65;1.10;;;16.30;26.10;19.10;93955.00;;;;10398970;28;45200;-59
2022/04/04 06:04:15;;;;;;;1.77;1.00;;;16.40;26.10;19.10;93947.00;;;;10389110;28;45461;-61
2022/04/04 06:09:16;;;;;;;1.45;0.93;;;16.40;26.10;19.20;93965.00;;;;10398061;28;45187;-60
2022/04/04 06:14:16;;;;;;;1.70;1.10;;;16.40;26.20;19.20;93960.00;;;;10380763;28;45141;-61
2022/04/04 06:19:17;;;;;;;2.30;1.23;;;16.40;26.10;19.20;93957.00;;;;10398275;28;46098;-61
2022/04/04 06:24:17;;;;;;;2.00;1.25;;;16.40;26.20;19.20;93964.00;;;;10398177;28;45209;-62
2022/04/04 06:29:18;;;;;;;2.10;1.20;;;16.40;26.20;19.20;93955.00;;;;10379965;28;46714;-59
2022/04/04 06:34:20;;;;;;;1.80;1.13;;;16.40;26.30;19.20;93969.00;;;;10379785;28;46314;-60
2022/04/04 06:39:23;;;;;;;1.52;1.02;;;16.40;26.30;19.20;93956.00;;;;10381163;28;47336;-60
2022/04/04 06:44:24;;;;;;;2.25;0.90;;;16.50;26.30;19.20;93963.00;;;;10438868;28;46188;-62
2022/04/04 06:49:25;;;;;;;1.95;1.05;;;16.50;26.50;19.30;93970.00;;;;10438977;28;45519;-61
2022/04/04 06:54:27;;;;;;;1.73;1.00;;;16.50;26.50;19.30;93963.00;;;;10438799;28;45178;-60
2022/04/04 06:59:30;;;;;;;2.00;1.00;;;16.50;26.40;19.30;93956.00;;;;10420883;28;45415;-60
2022/04/04 07:04:31;;;;;;;1.88;1.00;;;16.50;26.40;19.30;93959.00;;;;10420424;28;47285;-61
2022/04/04 07:09:31;;;;;;;1.33;0.80;;;16.50;26.40;19.30;93958.00;;;;10438106;28;45652;-61
2022/04/04 07:14:32;;;;;;;1.25;0.93;;;16.50;26.50;19.30;93961.00;;;;10420075;28;47461;-60
2022/04/04 07:19:33;;;;;;;1.60;0.80;;;16.50;26.40;19.30;93960.00;;;;10437943;28;45945;-61
2022/04/04 07:24:33;;;;;;;0.98;0.73;;;16.50;26.50;19.30;93962.00;;;;10352395;28;46372;-60
2022/04/04 07:29:34;;;;;;;2.47;0.90;;;16.50;26.50;19.20;93952.00;;;;10361842;28;47711;-60
2022/04/04 07:34:36;;;;;;;1.70;0.85;;;16.50;26.50;19.30;93959.00;;;;10356951;28;45356;-60
2022/04/04 07:39:37;;;;;;;2.53;0.98;;;16.50;26.50;19.30;93961.00;;;;10354404;28;46474;-60
2022/04/04 07:44:39;;;;;;;1.60;0.85;;;16.50;26.70;19.30;93971.00;;;;10337280;28;45326;-60
2022/04/04 07:49:40;;;;;;;2.97;1.02;;;16.50;26.70;19.30;93965.00;;;;10320453;28;48123;-61
2022/04/04 07:54:40;;;;;;;1.88;0.70;;;16.50;27.10;19.30;93955.00;;;;10336545;28;45449;-64
2022/04/04 07:59:41;;;;;;;3.85;0.80;;;16.60;27.50;19.40;93969.00;;;;10353148;28;45153;-61
2022/04/04 08:04:42;;;;;;;4.72;0.90;;;16.60;27.40;19.40;93962.00;;;;10353114;28;45206;-60
2022/04/04 08:09:42;;;;;;;2.03;0.88;;;16.60;27.70;19.50;93967.00;;;;10335244;28;45170;-59
2022/04/04 08:14:45;;;;;;;2.33;0.95;;;16.70;27.40;19.40;93953.00;;;;10335214;28;47031;-62
2022/04/04 08:19:45;;;;;;;2.42;0.88;;;16.70;27.10;19.30;93956.00;;;;10352706;28;45326;-60
2022/04/04 08:24:46;;;;;;;1.85;0.70;;;16.50;26.70;19.40;93965.00;;;;10356993;28;47031;-60
2022/04/04 08:29:47;;;;;;;1.80;0.77;;;16.60;26.60;19.30;93952.00;;;;10375234;28;48548;-61
2022/04/04 08:34:47;;;;;;;1.30;0.77;;;16.50;26.40;19.40;93957.00;;;;10392262;28;45288;-61
2022/04/04 08:39:49;;;;;;;2.13;0.80;;;16.60;26.40;19.40;93954.00;;;;10393305;28;45155;-60
2022/04/04 08:44:50;;;;;;;1.38;0.70;;;16.70;26.30;19.40;93957.00;;;;10392837;28;46061;-59
2022/04/04 08:49:53;;;;;;;1.35;0.70;;;16.70;26.30;19.40;93934.00;;;;10393456;28;46198;-60
2022/04/04 08:54:54;;;;;;;1.23;0.50;;;16.60;26.30;19.40;93941.00;;;;10398892;28;45787;-60
2022/04/04 08:59:54;;;;;;;1.70;0.40;;;16.60;26.40;19.50;93937.00;;;;10386649;28;47468;-61
2022/04/04 09:05:04;;;;;;;0.88;0.60;;;16.70;27.00;19.50;93956.00;;;;10394827;28;45234;-62
2022/04/04 09:10:12;;;;;;;1.08;0.60;;;16.80;28.00;19.50;93944.00;;;;10409164;28;46103;-63
2022/04/04 09:15:13;;;;;;;3.53;0.60;;;16.80;28.00;19.50;93945.00;;;;10440027;28;46228;-62
2022/04/04 09:20:16;;;;;;;1.27;0.73;;;16.80;28.00;19.60;93934.00;;;;10383677;28;46227;-60
2022/04/04 09:25:31;;;;;;;1.05;0.50;;;16.90;27.70;19.40;93945.00;;;;10394796;28;46169;-60
2022/04/04 09:30:31;;;;;;;6.60;0.80;;;16.70;27.50;19.50;93927.00;;;;10394459;28;46156;-68
2022/04/04 09:35:45;;;;;;;2.88;0.50;;;16.80;27.80;19.60;93907.00;;;;10389140;28;46053;-66
2022/04/04 09:40:46;;;;;;;0.40;0.20;;;17.00;27.40;19.70;93901.00;;;;10405778;28;47131;-67
2022/04/04 09:45:47;;;;;;;2.35;0.30;;;17.20;27.20;19.70;93910.00;;;;10421650;28;46304;-68
2022/04/04 13:31:08;;;;;;;0.95;0.30;;;16.80;43.30;19.60;93685.00;;;;10557494;27;45498;-66
2022/04/04 13:36:09;;;;;;;1.35;0.40;;;17.00;43.50;19.70;93687.00;;;;10497213;27;47979;-65
2022/04/04 13:41:10;;;;;;;1.23;0.40;;;17.20;42.50;19.80;93673.00;;;;10509952;28;46499;-65
2022/04/04 13:46:10;;;;;;;0.85;0.38;;;17.20;42.30;19.90;93666.00;;;;10491056;28;47183;-65
2022/04/04 13:51:11;;;;;;;2.05;0.50;;;17.40;42.00;19.90;93647.00;;;;10491739;28;46405;-65
2022/04/04 13:56:12;;;;;;;0.98;0.50;;;17.40;41.40;20.00;93649.00;;;;10480698;28;45393;-64
2022/04/04 14:01:14;;;;;;;0.98;0.50;;;17.50;40.90;20.10;93651.00;;;;10495604;28;45394;-64
2022/04/04 14:06:15;;;;;;;1.25;0.38;;;17.50;41.00;20.20;93650.00;;;;10493861;28;46359;-63
2022/04/04 14:11:17;;;;;;;0.50;0.32;;;17.60;40.40;20.30;93629.00;;;;10467160;28;47555;-65
2022/04/04 14:16:18;;;;;;;0.93;0.50;;;17.70;39.70;20.30;93630.00;;;;10496385;28;46239;-68
2022/04/04 14:21:19;;;;;;;1.05;0.50;;;17.80;39.50;20.40;93635.00;;;;10467947;28;45248;-64
2022/04/04 14:26:20;;;;;;;1.65;0.70;;;17.80;39.00;20.60;93608.00;;;;10480318;28;45589;-65
2022/04/04 14:31:21;;;;;;;1.70;0.70;;;18.00;38.40;20.70;93627.00;;;;10476306;28;48086;-67
2022/04/04 14:36:22;;;;;;;1.52;0.60;;;18.10;38.40;20.40;93613.00;;;;10509355;28;45136;-62
2022/04/04 14:41:23;;;;;;;0.60;0.50;;;17.90;34.10;20.60;93611.00;;;;10489525;28;45420;-62
2022/04/04 14:46:24;;;;;;;1.15;0.57;;;18.00;36.00;20.70;93596.00;;;;10481945;28;45203;-63
2022/04/04 14:51:25;;;;;;;2.15;0.70;;;18.10;36.20;20.60;93576.00;;;;10480017;28;46402;-64
2022/04/04 14:56:25;;;;;;;3.20;0.60;;;18.10;36.30;20.60;93596.00;;;;10479950;28;46270;-62
2022/04/04 15:01:26;;;;;;;0.98;0.57;;;18.00;36.40;20.60;93588.00;;;;10481915;28;46245;-62
2022/04/04 15:06:27;;;;;;;2.80;1.00;;;18.00;35.80;20.60;93596.00;;;;10480490;28;46129;-62
2022/04/04 15:11:27;;;;;;;1.75;0.60;;;18.00;35.80;20.70;93589.00;;;;10482093;28;45269;-62
2022/04/04 15:16:29;;;;;;;1.55;0.70;;;18.10;35.80;20.70;93585.00;;;;10462239;28;46868;-62
2022/04/04 15:21:34;;;;;;;2.22;0.63;;;18.10;35.50;20.60;93588.00;;;;10466684;28;46273;-64
2022/04/04 15:26:35;;;;;;;1.33;0.60;;;18.00;35.30;20.60;93591.00;;;;10454800;28;45319;-63
2022/04/04 15:31:36;;;;;;;0.95;0.40;;;18.00;35.40;20.60;93590.00;;;;10464020;27;46390;-65
2022/04/04 15:36:39;;;;;;;1.42;0.50;;;18.00;35.00;20.60;93562.00;;;;10462615;28;46822;-63
2022/04/04 15:41:42;;;;;;;3.08;0.70;;;18.00;34.80;20.60;93592.00;;;;10462405;28;46179;-63
2022/04/04 15:46:44;;;;;;;1.50;0.52;;;18.00;34.80;20.70;93586.00;;;;10461755;27;45605;-63
2022/04/04 15:51:44;;;;;;;3.05;0.80;;;18.00;34.60;20.70;93587.00;;;;10447432;28;47739;-63
2022/04/04 15:56:45;;;;;;;5.40;2.17;;;18.10;34.70;20.80;93584.00;;;;10468331;28;45358;-64
2022/04/04 16:01:46;;;;;;;12.63;4.07;;;18.20;33.70;20.80;93585.00;;;;10462001;27;46302;-63
2022/04/04 16:06:47;;;;;;;10.55;3.47;;;18.10;33.20;20.80;93578.00;;;;10452455;28;47676;-63
2022/04/04 16:11:48;;;;;;;7.68;3.10;;;18.20;33.10;20.90;93565.00;;;;10454419;28;47289;-63
2022/04/04 16:16:50;;;;;;;9.18;3.03;;;18.20;33.10;20.90;93563.00;;;;10503905;28;45351;-62
2022/04/04 16:21:51;;;;;;;8.88;2.75;;;18.30;33.30;20.90;93573.00;;;;10513932;28;45328;-62
2022/04/04 16:26:52;;;;;;;6.35;2.75;;;18.30;33.20;20.80;93559.00;;;;10517870;28;45171;-63
2022/04/04 16:31:52;;;;;;;7.53;2.80;;;18.30;33.00;20.80;93562.00;;;;10519197;28;46768;-64
2022/04/04 16:36:53;;;;;;;10.05;3.35;;;18.20;32.90;20.80;93569.00;;;;10519953;28;45388;-63
2022/04/04 16:41:54;;;;;;;9.95;3.05;;;18.10;33.00;20.70;93560.00;;;;10491656;28;45399;-62
2022/04/04 16:46:55;;;;;;;8.07;3.10;;;18.10;33.00;20.60;93565.00;;;;10459189;28;48366;-62
2022/04/04 16:51:55;;;;;;;7.35;2.65;;;18.00;33.00;20.60;93578.00;;;;10476641;28;45378;-63
2022/04/04 16:56:56;;;;;;;9.20;2.85;;;18.00;32.90;20.50;93553.00;;;;10476705;28;45317;-63
2022/04/04 17:01:57;;;;;;;6.55;2.20;;;18.00;32.90;20.60;93556.00;;;;10451729;28;45287;-64
2022/04/04 17:06:57;;;;;;;7.85;2.47;;;17.90;32.80;20.50;93575.00;;;;10414652;28;47999;-63
2022/04/04 17:11:58;;;;;;;5.13;2.00;;;17.90;32.70;20.50;93569.00;;;;10435447;28;47713;-64
2022/04/04 17:16:59;;;;;;;6.25;2.05;;;17.90;32.60;20.50;93560.00;;;;10453239;28;46727;-64
2022/04/04 17:22:01;;;;;;;5.15;2.00;;;17.90;32.50;20.50;93569.00;;;;10434209;28;47000;-64
2022/04/04 17:27:02;;;;;;;3.95;1.63;;;17.90;32.30;20.50;93562.00;;;;10415426;28;47079;-63
2022/04/04 17:32:05;;;;;;;3.58;1.48;;;17.90;32.20;20.50;93536.00;;;;10432457;28;46516;-63
2022/04/04 17:37:05;;;;;;;6.05;1.83;;;17.90;32.10;20.50;93542.00;;;;10432990;28;45277;-64
2022/04/04 17:42:06;;;;;;;4.45;1.45;;;17.90;32.00;20.50;93549.00;;;;10492219;28;45213;-64
2022/04/04 17:47:08;;;;;;;2.70;1.10;;;17.90;32.00;20.50;93555.00;;;;10498928;28;48003;-64
2022/04/04 17:52:09;;;;;;;2.55;1.25;;;17.80;31.90;20.40;93553.00;;;;10515490;28;48142;-64
2022/04/04 17:57:09;;;;;;;3.25;1.50;;;17.80;31.80;20.40;93559.00;;;;10516550;28;45570;-64
2022/04/04 18:02:11;;;;;;;2.65;1.25;;;17.80;31.80;20.40;93560.00;;;;10498826;28;46901;-64
2022/04/04 18:07:12;;;;;;;3.17;1.40;;;17.80;31.70;20.40;93566.00;;;;10515109;27;45588;-64
2022/04/04 18:12:12;;;;;;;4.15;1.52;;;17.70;31.60;20.40;93569.00;;;;10516873;28;46421;-64
2022/04/04 18:17:13;;;;;;;5.53;1.98;;;17.70;31.60;20.40;93565.00;;;;10520657;27;45246;-63
2022/04/04 18:22:14;;;;;;;4.60;1.92;;;17.70;31.60;20.40;93569.00;;;;10511327;22;45537;-62
2022/04/04 18:27:16;;;;;;;4.38;1.80;;;17.80;32.40;20.40;93563.00;;;;10398949;28;45289;-64
2022/04/04 18:32:20;;;;;;;7.28;1.70;;;17.80;32.00;20.40;93582.00;;;;10381861;28;46510;-62
2022/04/04 18:37:20;;;;;;;5.20;1.90;;;17.80;31.80;20.40;93581.00;;;;10380691;28;45453;-62
2022/04/04 18:42:21;;;;;;;5.43;2.15;;;17.80;31.60;20.40;93584.00;;;;10381824;28;45189;-62
2022/04/04 18:47:22;;;;;;;5.15;2.05;;;17.80;31.60;20.40;93592.00;;;;10398555;28;45487;-62
2022/04/04 18:52:24;;;;;;;4.68;1.85;;;17.80;31.30;20.40;93581.00;;;;10381291;28;46861;-62
2022/04/04 18:57:25;;;;;;;5.03;1.60;;;17.70;31.30;20.30;93575.00;;;;10397438;28;46311;-63
2022/04/04 19:02:25;;;;;;;4.30;1.80;;;17.70;31.20;20.30;93591.00;;;;10397147;28;45313;-62
2022/04/04 19:07:26;;;;;;;4.47;1.33;;;17.70;31.30;20.30;93602.00;;;;10396947;28;46372;-63
2022/04/04 19:12:26;;;;;;;4.60;1.60;;;17.70;31.20;20.20;93597.00;;;;10380117;28;45278;-62
2022/04/04 19:17:27;;;;;;;4.28;1.52;;;17.60;31.00;20.20;93621.00;;;;10363804;28;48635;-62
2022/04/04 19:22:31;;;;;;;4.05;1.50;;;17.60;31.00;20.20;93622.00;;;;10396956;28;45362;-62
2022/04/04 19:27:32;;;;;;;3.67;1.50;;;17.60;30.90;20.20;93625.00;;;;10363457;28;47106;-62
2022/04/04 19:32:33;;;;;;;4.55;1.30;;;17.50;31.00;20.20;93626.00;;;;10400025;28;46791;-62
2022/04/04 19:37:33;;;;;;;3.05;1.30;;;17.50;30.90;20.20;93610.00;;;;10388604;28;48408;-63
2022/04/04 19:42:35;;;;;;;3.17;1.17;;;17.50;30.80;20.20;93622.00;;;;10380037;28;46348;-62
2022/04/04 19:47:35;;;;;;;3.10;1.30;;;17.60;30.80;20.20;93617.00;;;;10379488;28;47194;-63
2022/04/04 19:52:37;;;;;;;3.05;1.30;;;17.50;30.70;20.20;93619.00;;;;10397225;28;45194;-62
2022/04/04 19:57:37;;;;;;;2.85;1.20;;;17.60;30.60;20.20;93623.00;;;;10362489;28;48423;-63
2022/04/04 20:02:40;;;;;;;2.42;0.98;;;17.60;30.50;20.20;93631.00;;;;10396937;28;45538;-62
2022/04/04 20:07:41;;;;;;;1.50;0.80;;;17.60;30.40;20.20;93634.00;;;;10396458;28;45202;-62
2022/04/04 20:12:41;;;;;;;1.77;1.00;;;17.60;30.40;20.20;93641.00;;;;10378539;28;46393;-62
2022/04/04 20:17:42;;;;;;;3.17;1.15;;;17.60;30.30;20.20;93637.00;;;;10396192;28;46306;-63
2022/04/04 20:22:43;;;;;;;2.10;1.02;;;17.60;30.30;20.10;93628.00;;;;10377927;28;47137;-65
2022/04/04 20:27:47;;;;;;;4.03;1.25;;;17.60;30.40;20.10;93646.00;;;;10360463;28;47315;-64
2022/04/04 20:32:49;;;;;;;1.65;1.02;;;17.60;30.30;20.10;93641.00;;;;10361689;28;47127;-64
2022/04/04 20:37:50;;;;;;;1.52;0.80;;;17.60;30.20;20.10;93645.00;;;;10360754;28;47215;-64
2022/04/04 20:42:50;;;;;;;1.83;1.00;;;17.50;30.10;20.10;93652.00;;;;10376967;28;46688;-63
2022/04/04 20:47:51;;;;;;;3.08;1.00;;;17.50;30.10;20.10;93636.00;;;;10390278;28;46206;-62
2022/04/04 20:52:52;;;;;;;1.98;0.90;;;17.50;30.20;20.10;93630.00;;;;10394753;28;45311;-64
2022/04/04 20:57:53;;;;;;;1.35;0.70;;;17.50;30.10;20.00;93636.00;;;;10377733;28;45569;-64
2022/04/04 21:02:53;;;;;;;1.52;0.80;;;17.40;30.10;20.00;93643.00;;;;10377266;28;47946;-63
2022/04/04 21:07:54;;;;;;;1.13;0.73;;;17.40;30.00;20.00;93638.00;;;;10360406;28;46954;-63
2022/04/04 21:12:55;;;;;;;1.52;0.80;;;17.40;30.00;20.00;93637.00;;;;10377089;28;45222;-64
2022/04/04 21:17:55;;;;;;;2.15;0.75;;;17.40;30.00;20.00;93644.00;;;;10360605;28;47137;-64
2022/04/04 21:22:56;;;;;;;1.95;0.70;;;17.40;30.00;20.00;93640.00;;;;10359855;28;47235;-62
2022/04/04 21:27:56;;;;;;;1.75;0.77;;;17.40;30.00;20.00;93642.00;;;;10394198;28;45299;-63
2022/04/04 21:32:59;;;;;;;1.05;0.73;;;17.40;30.00;20.00;93625.00;;;;10376567;28;47850;-64
2022/04/04 21:37:59;;;;;;;1.80;0.75;;;17.40;30.00;19.90;93602.00;;;;10376752;28;46600;-64
2022/04/04 21:43:00;;;;;;;1.10;0.57;;;17.40;30.00;19.90;93620.00;;;;10376811;28;46846;-64
2022/04/04 21:48:01;;;;;;;1.73;0.77;;;17.40;30.00;19.90;93615.00;;;;10376599;28;47330;-64
2022/04/04 21:53:01;;;;;;;0.57;0.50;;;17.40;30.00;19.90;93618.00;;;;10401200;28;45591;-64
2022/04/04 21:58:02;;;;;;;1.65;0.57;;;17.40;30.00;19.90;93628.00;;;;10367175;28;47635;-64
2022/04/04 22:03:04;;;;;;;1.38;0.70;;;17.40;30.00;19.90;93633.00;;;;10401043;28;45230;-64
2022/04/04 22:08:05;;;;;;;0.52;0.52;;;17.40;30.00;19.90;93630.00;;;;10382341;28;46584;-64
2022/04/04 22:13:05;;;;;;;1.75;0.73;;;17.30;30.00;19.90;93625.00;;;;10382446;28;45327;-63
2022/04/04 22:18:07;;;;;;;1.35;0.60;;;17.30;30.00;19.90;93634.00;;;;10366674;28;46785;-63
2022/04/04 22:23:08;;;;;;;1.63;0.70;;;17.40;30.00;19.90;93633.00;;;;10382683;28;45368;-64
2022/04/04 22:28:08;;;;;;;1.15;0.50;;;17.40;30.00;19.90;93642.00;;;;10399539;28;45224;-64
2022/04/04 22:33:09;;;;;;;0.70;0.55;;;17.30;30.00;19.90;93644.00;;;;10382087;28;46417;-64
2022/04/04 22:38:10;;;;;;;0.95;0.60;;;17.30;30.00;19.90;93639.00;;;;10399179;28;45525;-63
2022/04/04 22:43:10;;;;;;;1.20;0.50;;;17.40;30.00;19.90;93633.00;;;;10399144;28;45701;-64
2022/04/04 22:48:12;;;;;;;1.30;0.60;;;17.30;30.00;19.90;93621.00;;;;10364669;28;47077;-63
2022/04/04 22:53:17;;;;;;;1.45;0.50;;;17.30;29.90;19.90;93624.00;;;;10399291;28;45209;-63
2022/04/04 22:58:17;;;;;;;1.15;0.40;;;17.30;29.90;19.90;93600.00;;;;10381377;28;45439;-64
2022/04/04 23:03:18;;;;;;;0.47;0.40;;;17.30;29.90;19.90;93596.00;;;;10380035;28;47279;-63
2022/04/04 23:08:18;;;;;;;0.60;0.45;;;17.30;29.90;19.90;93608.00;;;;10398233;28;45556;-64
2022/04/04 23:13:19;;;;;;;0.82;0.47;;;17.30;29.90;19.80;93598.00;;;;10364055;28;46837;-64
2022/04/04 23:18:20;;;;;;;0.77;0.40;;;17.30;29.90;19.80;93605.00;;;;10380388;28;45485;-63
2022/04/04 23:23:20;;;;;;;0.70;0.40;;;17.30;29.90;19.90;93586.00;;;;10397715;28;45215;-64
2022/04/04 23:28:22;;;;;;;0.60;0.40;;;17.30;29.90;19.80;93606.00;;;;10363385;28;46928;-63
2022/04/04 23:33:23;;;;;;;1.33;0.45;;;17.30;29.90;19.80;93601.00;;;;10380086;28;46425;-64
2022/04/04 23:38:24;;;;;;;0.40;0.40;;;17.30;29.90;19.80;93581.00;;;;10362771;28;46883;-64
2022/04/04 23:43:25;;;;;;;0.85;0.47;;;17.30;29.90;19.80;93597.00;;;;10397277;28;45503;-63
2022/04/04 23:48:26;;;;;;;1.65;0.50;;;17.30;29.80;19.80;93585.00;;;;10379059;28;45606;-64
2022/04/04 23:53:27;;;;;;;0.60;0.40;;;17.20;29.80;19.80;93591.00;;;;10363019;28;48013;-62
2022/04/04 23:58:27;;;;;;;0.75;0.30;;;17.20;29.80;19.80;93588.00;;;;10378997;28;45587;-64
